sensor_id;sensor_type;location;lat;lon;timestamp;P1;durP1;ratioP1;P2;durP2;ratioP2
15905;SDS011;8051;50.820;4.884;2023-04-07T00:02:10;27.47;;;19.60;;
15905;SDS011;8051;50.820;4.884;2023-04-07T00:04:37;26.73;;;19.50;;
15905;SDS011;8051;50.820;4.884;2023-04-07T00:07:06;23.07;;;17.17;;
15905;SDS011;8051;50.820;4.884;2023-04-07T00:09:34;22.60;;;17.03;;
15905;SDS011;8051;50.820;4.884;2023-04-07T00:12:02;26.43;;;17.37;;
15905;SDS011;8051;50.820;4.884;2023-04-07T00:14:29;28.57;;;16.67;;
15905;SDS011;8051;50.820;4.884;2023-04-07T00:16:57;23.93;;;17.00;;
15905;SDS011;8051;50.820;4.884;2023-04-07T00:19:24;18.37;;;16.57;;
15905;SDS011;8051;50.820;4.884;2023-04-07T00:21:52;20.10;;;16.43;;
15905;SDS011;8051;50.820;4.884;2023-04-07T00:24:21;20.30;;;15.37;;
15905;SDS011;8051;50.820;4.884;2023-04-07T00:26:48;21.63;;;16.37;;
15905;SDS011;8051;50.820;4.884;2023-04-07T00:29:15;20.53;;;15.87;;
15905;SDS011;8051;50.820;4.884;2023-04-07T00:31:43;18.27;;;15.53;;
15905;SDS011;8051;50.820;4.884;2023-04-07T00:34:10;23.23;;;15.07;;
15905;SDS011;8051;50.820;4.884;2023-04-07T00:36:38;23.70;;;16.13;;
15905;SDS011;8051;50.820;4.884;2023-04-07T00:39:05;20.07;;;16.57;;
15905;SDS011;8051;50.820;4.884;2023-04-07T00:41:34;18.17;;;16.30;;
15905;SDS011;8051;50.820;4.884;2023-04-07T00:44:02;19.43;;;15.93;;
15905;SDS011;8051;50.820;4.884;2023-04-07T00:46:29;22.33;;;16.10;;
15905;SDS011;8051;50.820;4.884;2023-04-07T00:48:57;17.03;;;15.30;;
15905;SDS011;8051;50.820;4.884;2023-04-07T00:51:24;25.33;;;16.67;;
15905;SDS011;8051;50.820;4.884;2023-04-07T00:53:53;24.80;;;16.97;;
15905;SDS011;8051;50.820;4.884;2023-04-07T00:56:21;23.33;;;16.60;;
15905;SDS011;8051;50.820;4.884;2023-04-07T00:58:49;18.67;;;16.20;;
15905;SDS011;8051;50.820;4.884;2023-04-07T01:01:18;23.43;;;15.50;;
15905;SDS011;8051;50.820;4.884;2023-04-07T01:03:51;19.40;;;15.67;;
15905;SDS011;8051;50.820;4.884;2023-04-07T01:06:23;27.63;;;16.23;;
15905;SDS011;8051;50.820;4.884;2023-04-07T01:08:56;17.07;;;15.33;;
15905;SDS011;8051;50.820;4.884;2023-04-07T01:11:30;22.83;;;16.80;;
15905;SDS011;8051;50.820;4.884;2023-04-07T01:14:04;20.77;;;17.33;;
15905;SDS011;8051;50.820;4.884;2023-04-07T01:16:34;26.27;;;17.00;;
15905;SDS011;8051;50.820;4.884;2023-04-07T01:19:08;26.10;;;17.77;;
15905;SDS011;8051;50.820;4.884;2023-04-07T01:21:41;25.87;;;17.63;;
15905;SDS011;8051;50.820;4.884;2023-04-07T01:24:26;24.23;;;16.83;;
15905;SDS011;8051;50.820;4.884;2023-04-07T01:27:14;27.23;;;19.37;;
15905;SDS011;8051;50.820;4.884;2023-04-07T01:29:49;33.90;;;18.80;;
15905;SDS011;8051;50.820;4.884;2023-04-07T01:32:19;30.20;;;20.37;;
15905;SDS011;8051;50.820;4.884;2023-04-07T01:34:49;28.33;;;20.63;;
15905;SDS011;8051;50.820;4.884;2023-04-07T01:37:18;29.83;;;20.57;;
15905;SDS011;8051;50.820;4.884;2023-04-07T01:39:47;39.80;;;22.07;;
15905;SDS011;8051;50.820;4.884;2023-04-07T01:42:14;29.47;;;22.23;;
15905;SDS011;8051;50.820;4.884;2023-04-07T01:44:44;44.10;;;23.93;;
15905;SDS011;8051;50.820;4.884;2023-04-07T01:47:14;35.30;;;24.00;;
15905;SDS011;8051;50.820;4.884;2023-04-07T01:49:43;39.17;;;24.73;;
15905;SDS011;8051;50.820;4.884;2023-04-07T01:52:12;44.40;;;25.33;;
15905;SDS011;8051;50.820;4.884;2023-04-07T01:54:40;42.50;;;27.07;;
15905;SDS011;8051;50.820;4.884;2023-04-07T01:57:08;35.57;;;24.50;;
15905;SDS011;8051;50.820;4.884;2023-04-07T01:59:35;44.40;;;26.37;;
15905;SDS011;8051;50.820;4.884;2023-04-07T02:02:03;45.90;;;27.33;;
15905;SDS011;8051;50.820;4.884;2023-04-07T02:04:34;41.43;;;26.73;;
15905;SDS011;8051;50.820;4.884;2023-04-07T02:07:05;49.93;;;27.73;;
15905;SDS011;8051;50.820;4.884;2023-04-07T02:09:35;41.70;;;27.60;;
15905;SDS011;8051;50.820;4.884;2023-04-07T02:12:06;49.50;;;27.00;;
15905;SDS011;8051;50.820;4.884;2023-04-07T02:14:37;45.47;;;26.83;;
15905;SDS011;8051;50.820;4.884;2023-04-07T02:17:05;52.93;;;29.90;;
15905;SDS011;8051;50.820;4.884;2023-04-07T02:19:34;56.27;;;30.23;;
15905;SDS011;8051;50.820;4.884;2023-04-07T02:22:02;56.30;;;31.50;;
15905;SDS011;8051;50.820;4.884;2023-04-07T02:24:30;55.57;;;32.40;;
15905;SDS011;8051;50.820;4.884;2023-04-07T02:26:58;58.83;;;32.77;;
15905;SDS011;8051;50.820;4.884;2023-04-07T02:29:26;54.70;;;33.73;;
15905;SDS011;8051;50.820;4.884;2023-04-07T02:31:54;52.40;;;33.07;;
15905;SDS011;8051;50.820;4.884;2023-04-07T02:34:22;58.07;;;34.70;;
15905;SDS011;8051;50.820;4.884;2023-04-07T02:36:51;59.10;;;33.70;;
15905;SDS011;8051;50.820;4.884;2023-04-07T02:39:18;57.23;;;34.40;;
15905;SDS011;8051;50.820;4.884;2023-04-07T02:41:46;63.27;;;36.17;;
15905;SDS011;8051;50.820;4.884;2023-04-07T02:44:13;64.50;;;36.70;;
15905;SDS011;8051;50.820;4.884;2023-04-07T02:46:41;57.97;;;36.03;;
15905;SDS011;8051;50.820;4.884;2023-04-07T02:49:08;57.90;;;35.23;;
15905;SDS011;8051;50.820;4.884;2023-04-07T02:51:35;68.93;;;37.27;;
15905;SDS011;8051;50.820;4.884;2023-04-07T02:54:04;68.53;;;35.30;;
15905;SDS011;8051;50.820;4.884;2023-04-07T02:56:31;59.70;;;37.03;;
15905;SDS011;8051;50.820;4.884;2023-04-07T02:58:59;67.77;;;38.67;;
15905;SDS011;8051;50.820;4.884;2023-04-07T03:01:28;68.03;;;36.40;;
15905;SDS011;8051;50.820;4.884;2023-04-07T03:03:55;62.73;;;35.93;;
15905;SDS011;8051;50.820;4.884;2023-04-07T03:06:22;69.23;;;38.90;;
15905;SDS011;8051;50.820;4.884;2023-04-07T03:08:51;69.27;;;38.83;;
15905;SDS011;8051;50.820;4.884;2023-04-07T03:11:20;66.43;;;37.10;;
15905;SDS011;8051;50.820;4.884;2023-04-07T03:13:47;75.53;;;40.40;;
15905;SDS011;8051;50.820;4.884;2023-04-07T03:16:14;66.23;;;38.63;;
15905;SDS011;8051;50.820;4.884;2023-04-07T03:18:42;69.50;;;37.90;;
15905;SDS011;8051;50.820;4.884;2023-04-07T03:21:09;72.83;;;39.23;;
15905;SDS011;8051;50.820;4.884;2023-04-07T03:23:37;72.50;;;40.70;;
15905;SDS011;8051;50.820;4.884;2023-04-07T03:26:04;69.60;;;41.53;;
15905;SDS011;8051;50.820;4.884;2023-04-07T03:28:33;77.30;;;41.50;;
15905;SDS011;8051;50.820;4.884;2023-04-07T03:31:00;75.00;;;41.27;;
15905;SDS011;8051;50.820;4.884;2023-04-07T03:33:28;80.77;;;43.30;;
15905;SDS011;8051;50.820;4.884;2023-04-07T03:35:55;77.83;;;41.43;;
15905;SDS011;8051;50.820;4.884;2023-04-07T03:38:23;84.97;;;42.17;;
15905;SDS011;8051;50.820;4.884;2023-04-07T03:40:51;86.00;;;43.43;;
15905;SDS011;8051;50.820;4.884;2023-04-07T03:43:18;76.93;;;42.03;;
15905;SDS011;8051;50.820;4.884;2023-04-07T03:45:47;81.80;;;44.03;;
15905;SDS011;8051;50.820;4.884;2023-04-07T03:48:15;86.83;;;44.43;;
15905;SDS011;8051;50.820;4.884;2023-04-07T03:50:44;90.50;;;44.80;;
15905;SDS011;8051;50.820;4.884;2023-04-07T03:53:11;93.17;;;45.53;;
15905;SDS011;8051;50.820;4.884;2023-04-07T03:55:40;100.67;;;46.30;;
15905;SDS011;8051;50.820;4.884;2023-04-07T03:58:08;92.90;;;46.40;;
15905;SDS011;8051;50.820;4.884;2023-04-07T04:00:36;94.63;;;45.77;;
15905;SDS011;8051;50.820;4.884;2023-04-07T04:03:05;99.93;;;45.27;;
15905;SDS011;8051;50.820;4.884;2023-04-07T04:05:32;79.53;;;44.43;;
15905;SDS011;8051;50.820;4.884;2023-04-07T04:08:00;91.83;;;45.37;;
15905;SDS011;8051;50.820;4.884;2023-04-07T04:10:27;86.90;;;44.87;;
15905;SDS011;8051;50.820;4.884;2023-04-07T04:12:55;88.67;;;46.10;;
15905;SDS011;8051;50.820;4.884;2023-04-07T04:15:24;90.47;;;46.40;;
15905;SDS011;8051;50.820;4.884;2023-04-07T04:17:52;95.27;;;48.03;;
15905;SDS011;8051;50.820;4.884;2023-04-07T04:20:21;96.23;;;48.10;;
15905;SDS011;8051;50.820;4.884;2023-04-07T04:22:48;93.23;;;46.97;;
15905;SDS011;8051;50.820;4.884;2023-04-07T04:25:15;104.10;;;49.00;;
15905;SDS011;8051;50.820;4.884;2023-04-07T04:27:43;98.20;;;48.03;;
15905;SDS011;8051;50.820;4.884;2023-04-07T04:30:11;91.77;;;48.67;;
15905;SDS011;8051;50.820;4.884;2023-04-07T04:32:39;105.13;;;49.20;;
15905;SDS011;8051;50.820;4.884;2023-04-07T04:35:06;102.23;;;50.97;;
15905;SDS011;8051;50.820;4.884;2023-04-07T04:37:36;106.13;;;50.50;;
15905;SDS011;8051;50.820;4.884;2023-04-07T04:40:04;87.77;;;47.00;;
15905;SDS011;8051;50.820;4.884;2023-04-07T04:42:32;105.93;;;52.13;;
15905;SDS011;8051;50.820;4.884;2023-04-07T04:45:00;103.53;;;50.47;;
15905;SDS011;8051;50.820;4.884;2023-04-07T04:47:27;109.40;;;51.83;;
15905;SDS011;8051;50.820;4.884;2023-04-07T04:49:55;105.87;;;50.00;;
15905;SDS011;8051;50.820;4.884;2023-04-07T04:52:23;106.50;;;50.93;;
15905;SDS011;8051;50.820;4.884;2023-04-07T04:54:53;98.37;;;52.63;;
15905;SDS011;8051;50.820;4.884;2023-04-07T04:57:20;126.20;;;56.50;;
15905;SDS011;8051;50.820;4.884;2023-04-07T04:59:48;109.37;;;53.57;;
15905;SDS011;8051;50.820;4.884;2023-04-07T05:02:15;123.83;;;56.70;;
15905;SDS011;8051;50.820;4.884;2023-04-07T05:04:43;107.83;;;55.90;;
15905;SDS011;8051;50.820;4.884;2023-04-07T05:07:10;128.77;;;56.20;;
15905;SDS011;8051;50.820;4.884;2023-04-07T05:09:38;121.23;;;58.43;;
15905;SDS011;8051;50.820;4.884;2023-04-07T05:12:07;122.87;;;57.47;;
15905;SDS011;8051;50.820;4.884;2023-04-07T05:14:34;131.57;;;58.83;;
15905;SDS011;8051;50.820;4.884;2023-04-07T05:17:01;123.47;;;58.33;;
15905;SDS011;8051;50.820;4.884;2023-04-07T05:19:29;131.97;;;58.87;;
15905;SDS011;8051;50.820;4.884;2023-04-07T05:21:56;136.77;;;59.37;;
15905;SDS011;8051;50.820;4.884;2023-04-07T05:24:24;134.47;;;61.67;;
15905;SDS011;8051;50.820;4.884;2023-04-07T05:26:52;138.53;;;61.53;;
15905;SDS011;8051;50.820;4.884;2023-04-07T05:29:22;133.97;;;60.37;;
15905;SDS011;8051;50.820;4.884;2023-04-07T05:31:49;126.07;;;59.40;;
15905;SDS011;8051;50.820;4.884;2023-04-07T05:34:17;117.17;;;56.23;;
15905;SDS011;8051;50.820;4.884;2023-04-07T05:36:44;151.80;;;61.57;;
15905;SDS011;8051;50.820;4.884;2023-04-07T05:39:11;137.47;;;59.57;;
15905;SDS011;8051;50.820;4.884;2023-04-07T05:41:39;139.10;;;61.60;;
15905;SDS011;8051;50.820;4.884;2023-04-07T05:44:06;124.30;;;58.23;;
15905;SDS011;8051;50.820;4.884;2023-04-07T05:46:35;145.83;;;62.87;;
15905;SDS011;8051;50.820;4.884;2023-04-07T05:49:03;135.63;;;62.30;;
15905;SDS011;8051;50.820;4.884;2023-04-07T05:51:30;137.80;;;60.13;;
15905;SDS011;8051;50.820;4.884;2023-04-07T05:54:00;99.70;;;54.67;;
15905;SDS011;8051;50.820;4.884;2023-04-07T05:56:28;151.10;;;62.17;;
15905;SDS011;8051;50.820;4.884;2023-04-07T05:58:55;139.40;;;60.40;;
15905;SDS011;8051;50.820;4.884;2023-04-07T06:01:24;128.67;;;57.80;;
15905;SDS011;8051;50.820;4.884;2023-04-07T06:03:53;128.10;;;60.57;;
15905;SDS011;8051;50.820;4.884;2023-04-07T06:06:20;121.67;;;61.43;;
15905;SDS011;8051;50.820;4.884;2023-04-07T06:08:47;118.33;;;58.57;;
15905;SDS011;8051;50.820;4.884;2023-04-07T06:11:15;117.73;;;58.10;;
15905;SDS011;8051;50.820;4.884;2023-04-07T06:13:42;115.97;;;56.80;;
15905;SDS011;8051;50.820;4.884;2023-04-07T06:16:10;112.70;;;57.77;;
15905;SDS011;8051;50.820;4.884;2023-04-07T06:18:37;111.37;;;58.33;;
15905;SDS011;8051;50.820;4.884;2023-04-07T06:21:06;103.33;;;54.10;;
15905;SDS011;8051;50.820;4.884;2023-04-07T06:23:33;97.23;;;54.67;;
15905;SDS011;8051;50.820;4.884;2023-04-07T06:26:01;103.80;;;53.00;;
15905;SDS011;8051;50.820;4.884;2023-04-07T06:28:28;101.27;;;52.90;;
15905;SDS011;8051;50.820;4.884;2023-04-07T06:30:56;86.70;;;51.67;;
15905;SDS011;8051;50.820;4.884;2023-04-07T06:33:24;92.20;;;50.63;;
15905;SDS011;8051;50.820;4.884;2023-04-07T06:35:52;88.03;;;49.03;;
15905;SDS011;8051;50.820;4.884;2023-04-07T06:38:22;81.13;;;48.70;;
15905;SDS011;8051;50.820;4.884;2023-04-07T06:40:49;79.23;;;47.23;;
15905;SDS011;8051;50.820;4.884;2023-04-07T06:43:17;76.80;;;45.90;;
15905;SDS011;8051;50.820;4.884;2023-04-07T06:45:44;71.20;;;44.20;;
15905;SDS011;8051;50.820;4.884;2023-04-07T06:48:12;81.83;;;44.50;;
15905;SDS011;8051;50.820;4.884;2023-04-07T06:50:39;65.30;;;42.73;;
15905;SDS011;8051;50.820;4.884;2023-04-07T06:53:07;63.37;;;40.83;;
15905;SDS011;8051;50.820;4.884;2023-04-07T06:55:36;57.87;;;39.70;;
15905;SDS011;8051;50.820;4.884;2023-04-07T06:58:03;54.83;;;39.07;;
15905;SDS011;8051;50.820;4.884;2023-04-07T07:00:30;56.87;;;37.87;;
15905;SDS011;8051;50.820;4.884;2023-04-07T07:02:58;61.10;;;40.07;;
15905;SDS011;8051;50.820;4.884;2023-04-07T07:05:26;52.73;;;37.43;;
15905;SDS011;8051;50.820;4.884;2023-04-07T07:07:53;55.20;;;36.97;;
15905;SDS011;8051;50.820;4.884;2023-04-07T07:10:21;50.10;;;39.53;;
15905;SDS011;8051;50.820;4.884;2023-04-07T07:12:50;55.57;;;39.07;;
15905;SDS011;8051;50.820;4.884;2023-04-07T07:15:17;55.17;;;38.13;;
15905;SDS011;8051;50.820;4.884;2023-04-07T07:17:45;41.93;;;33.37;;
15905;SDS011;8051;50.820;4.884;2023-04-07T07:20:12;41.10;;;31.60;;
15905;SDS011;8051;50.820;4.884;2023-04-07T07:22:39;34.17;;;30.27;;
15905;SDS011;8051;50.820;4.884;2023-04-07T07:25:07;35.47;;;30.33;;
15905;SDS011;8051;50.820;4.884;2023-04-07T07:27:34;36.73;;;32.57;;
15905;SDS011;8051;50.820;4.884;2023-04-07T07:30:04;36.57;;;31.03;;
15905;SDS011;8051;50.820;4.884;2023-04-07T07:32:32;32.67;;;29.30;;
15905;SDS011;8051;50.820;4.884;2023-04-07T07:35:00;29.83;;;27.13;;
15905;SDS011;8051;50.820;4.884;2023-04-07T07:37:27;31.63;;;28.23;;
15905;SDS011;8051;50.820;4.884;2023-04-07T07:39:55;31.93;;;29.07;;
15905;SDS011;8051;50.820;4.884;2023-04-07T07:42:22;34.77;;;31.27;;
15905;SDS011;8051;50.820;4.884;2023-04-07T07:44:50;33.23;;;29.97;;
15905;SDS011;8051;50.820;4.884;2023-04-07T07:47:19;33.33;;;29.70;;
15905;SDS011;8051;50.820;4.884;2023-04-07T07:49:46;31.30;;;28.27;;
15905;SDS011;8051;50.820;4.884;2023-04-07T07:52:14;32.87;;;29.37;;
15905;SDS011;8051;50.820;4.884;2023-04-07T07:54:41;31.07;;;27.90;;
15905;SDS011;8051;50.820;4.884;2023-04-07T07:57:08;32.67;;;28.97;;
15905;SDS011;8051;50.820;4.884;2023-04-07T07:59:36;30.27;;;27.67;;
15905;SDS011;8051;50.820;4.884;2023-04-07T08:02:05;30.13;;;27.53;;
15905;SDS011;8051;50.820;4.884;2023-04-07T08:04:34;29.97;;;27.57;;
15905;SDS011;8051;50.820;4.884;2023-04-07T08:07:02;29.60;;;26.90;;
15905;SDS011;8051;50.820;4.884;2023-04-07T08:09:29;28.40;;;25.93;;
15905;SDS011;8051;50.820;4.884;2023-04-07T08:11:57;27.77;;;25.50;;
15905;SDS011;8051;50.820;4.884;2023-04-07T08:14:25;28.90;;;26.17;;
15905;SDS011;8051;50.820;4.884;2023-04-07T08:16:52;29.70;;;27.17;;
15905;SDS011;8051;50.820;4.884;2023-04-07T08:19:20;31.67;;;29.07;;
15905;SDS011;8051;50.820;4.884;2023-04-07T08:21:49;28.20;;;25.80;;
15905;SDS011;8051;50.820;4.884;2023-04-07T08:24:17;28.97;;;26.40;;
15905;SDS011;8051;50.820;4.884;2023-04-07T08:26:44;30.07;;;27.67;;
15905;SDS011;8051;50.820;4.884;2023-04-07T08:29:11;26.77;;;24.67;;
15905;SDS011;8051;50.820;4.884;2023-04-07T08:31:39;28.33;;;25.93;;
15905;SDS011;8051;50.820;4.884;2023-04-07T08:34:06;27.67;;;25.30;;
15905;SDS011;8051;50.820;4.884;2023-04-07T08:36:34;28.97;;;26.50;;
15905;SDS011;8051;50.820;4.884;2023-04-07T08:39:03;30.07;;;27.77;;
15905;SDS011;8051;50.820;4.884;2023-04-07T08:41:32;29.50;;;27.20;;
15905;SDS011;8051;50.820;4.884;2023-04-07T08:44:02;28.77;;;26.50;;
15905;SDS011;8051;50.820;4.884;2023-04-07T08:46:30;27.17;;;25.07;;
15905;SDS011;8051;50.820;4.884;2023-04-07T08:48:59;27.93;;;25.57;;
15905;SDS011;8051;50.820;4.884;2023-04-07T08:51:27;31.87;;;28.83;;
15905;SDS011;8051;50.820;4.884;2023-04-07T08:53:59;34.43;;;31.53;;
15905;SDS011;8051;50.820;4.884;2023-04-07T08:56:34;34.43;;;31.40;;
15905;SDS011;8051;50.820;4.884;2023-04-07T08:59:05;34.37;;;31.13;;
15905;SDS011;8051;50.820;4.884;2023-04-07T09:01:34;34.33;;;31.17;;
15905;SDS011;8051;50.820;4.884;2023-04-07T09:04:02;31.53;;;28.33;;
15905;SDS011;8051;50.820;4.884;2023-04-07T09:06:31;32.70;;;29.53;;
15905;SDS011;8051;50.820;4.884;2023-04-07T09:08:59;35.00;;;31.30;;
15905;SDS011;8051;50.820;4.884;2023-04-07T09:11:28;32.30;;;29.70;;
15905;SDS011;8051;50.820;4.884;2023-04-07T09:13:56;33.20;;;30.20;;
15905;SDS011;8051;50.820;4.884;2023-04-07T09:16:26;34.00;;;31.17;;
15905;SDS011;8051;50.820;4.884;2023-04-07T09:18:55;36.47;;;33.03;;
15905;SDS011;8051;50.820;4.884;2023-04-07T09:21:23;35.17;;;32.20;;
15905;SDS011;8051;50.820;4.884;2023-04-07T09:23:51;34.40;;;31.40;;
15905;SDS011;8051;50.820;4.884;2023-04-07T09:26:20;36.20;;;32.77;;
15905;SDS011;8051;50.820;4.884;2023-04-07T09:28:50;36.43;;;32.83;;
15905;SDS011;8051;50.820;4.884;2023-04-07T09:31:19;31.63;;;29.00;;
15905;SDS011;8051;50.820;4.884;2023-04-07T09:33:47;33.37;;;30.10;;
15905;SDS011;8051;50.820;4.884;2023-04-07T09:36:15;34.43;;;31.17;;
15905;SDS011;8051;50.820;4.884;2023-04-07T09:38:44;33.53;;;30.37;;
15905;SDS011;8051;50.820;4.884;2023-04-07T09:41:12;33.87;;;31.00;;
15905;SDS011;8051;50.820;4.884;2023-04-07T09:43:42;35.30;;;31.83;;
15905;SDS011;8051;50.820;4.884;2023-04-07T09:46:13;34.17;;;31.13;;
15905;SDS011;8051;50.820;4.884;2023-04-07T09:48:42;36.37;;;32.83;;
15905;SDS011;8051;50.820;4.884;2023-04-07T09:51:11;33.53;;;30.50;;
15905;SDS011;8051;50.820;4.884;2023-04-07T09:53:43;32.40;;;29.83;;
15905;SDS011;8051;50.820;4.884;2023-04-07T09:56:13;34.00;;;30.93;;
15905;SDS011;8051;50.820;4.884;2023-04-07T09:58:43;32.40;;;29.67;;
15905;SDS011;8051;50.820;4.884;2023-04-07T10:01:13;32.57;;;29.80;;
15905;SDS011;8051;50.820;4.884;2023-04-07T10:03:42;33.03;;;30.33;;
15905;SDS011;8051;50.820;4.884;2023-04-07T10:06:13;30.57;;;27.97;;
15905;SDS011;8051;50.820;4.884;2023-04-07T10:08:41;29.50;;;27.20;;
15905;SDS011;8051;50.820;4.884;2023-04-07T10:11:09;28.33;;;26.00;;
15905;SDS011;8051;50.820;4.884;2023-04-07T10:13:38;27.20;;;25.20;;
15905;SDS011;8051;50.820;4.884;2023-04-07T10:16:06;25.23;;;23.33;;
15905;SDS011;8051;50.820;4.884;2023-04-07T10:18:35;25.33;;;23.33;;
15905;SDS011;8051;50.820;4.884;2023-04-07T10:21:05;25.70;;;24.00;;
15905;SDS011;8051;50.820;4.884;2023-04-07T10:23:39;24.23;;;22.70;;
15905;SDS011;8051;50.820;4.884;2023-04-07T10:26:14;23.23;;;21.63;;
15905;SDS011;8051;50.820;4.884;2023-04-07T10:28:44;24.10;;;22.27;;
15905;SDS011;8051;50.820;4.884;2023-04-07T10:31:15;21.40;;;20.10;;
15905;SDS011;8051;50.820;4.884;2023-04-07T10:33:45;22.87;;;21.17;;
15905;SDS011;8051;50.820;4.884;2023-04-07T10:36:15;23.27;;;21.67;;
15905;SDS011;8051;50.820;4.884;2023-04-07T10:41:53;22.50;;;20.63;;
15905;SDS011;8051;50.820;4.884;2023-04-07T10:47:14;21.57;;;20.27;;
15905;SDS011;8051;50.820;4.884;2023-04-07T10:52:46;22.67;;;20.90;;
15905;SDS011;8051;50.820;4.884;2023-04-07T10:58:12;21.00;;;19.70;;
15905;SDS011;8051;50.820;4.884;2023-04-07T11:03:52;21.73;;;20.33;;
15905;SDS011;8051;50.820;4.884;2023-04-07T11:06:22;22.50;;;21.00;;
15905;SDS011;8051;50.820;4.884;2023-04-07T11:08:50;21.10;;;19.60;;
15905;SDS011;8051;50.820;4.884;2023-04-07T11:11:20;21.97;;;20.37;;
15905;SDS011;8051;50.820;4.884;2023-04-07T11:14:04;22.03;;;20.43;;
15905;SDS011;8051;50.820;4.884;2023-04-07T11:16:39;21.30;;;19.80;;
15905;SDS011;8051;50.820;4.884;2023-04-07T11:19:09;19.50;;;18.30;;
15905;SDS011;8051;50.820;4.884;2023-04-07T11:21:38;20.10;;;18.47;;
15905;SDS011;8051;50.820;4.884;2023-04-07T11:24:06;20.93;;;19.30;;
15905;SDS011;8051;50.820;4.884;2023-04-07T11:26:37;19.73;;;18.23;;
15905;SDS011;8051;50.820;4.884;2023-04-07T11:29:05;19.83;;;18.40;;
15905;SDS011;8051;50.820;4.884;2023-04-07T11:31:34;21.30;;;19.60;;
15905;SDS011;8051;50.820;4.884;2023-04-07T11:34:02;19.70;;;18.17;;
15905;SDS011;8051;50.820;4.884;2023-04-07T11:36:31;20.20;;;18.90;;
15905;SDS011;8051;50.820;4.884;2023-04-07T11:39:01;21.50;;;20.00;;
15905;SDS011;8051;50.820;4.884;2023-04-07T11:41:29;22.43;;;20.60;;
15905;SDS011;8051;50.820;4.884;2023-04-07T11:44:07;23.70;;;21.83;;
15905;SDS011;8051;50.820;4.884;2023-04-07T11:46:51;24.10;;;22.23;;
15905;SDS011;8051;50.820;4.884;2023-04-07T11:49:20;21.83;;;19.97;;
15905;SDS011;8051;50.820;4.884;2023-04-07T11:51:55;21.63;;;19.90;;
15905;SDS011;8051;50.820;4.884;2023-04-07T11:54:25;21.63;;;19.83;;
15905;SDS011;8051;50.820;4.884;2023-04-07T11:56:53;23.33;;;21.63;;
15905;SDS011;8051;50.820;4.884;2023-04-07T11:59:21;22.27;;;20.67;;
15905;SDS011;8051;50.820;4.884;2023-04-07T12:01:50;22.13;;;20.70;;
15905;SDS011;8051;50.820;4.884;2023-04-07T12:04:18;21.77;;;19.73;;
15905;SDS011;8051;50.820;4.884;2023-04-07T12:06:46;21.73;;;20.07;;
15905;SDS011;8051;50.820;4.884;2023-04-07T12:09:28;21.63;;;19.70;;
15905;SDS011;8051;50.820;4.884;2023-04-07T12:11:58;22.80;;;20.83;;
15905;SDS011;8051;50.820;4.884;2023-04-07T12:14:26;21.03;;;19.20;;
15905;SDS011;8051;50.820;4.884;2023-04-07T12:16:54;24.73;;;22.27;;
15905;SDS011;8051;50.820;4.884;2023-04-07T12:19:23;22.47;;;20.57;;
15905;SDS011;8051;50.820;4.884;2023-04-07T12:21:52;23.03;;;21.10;;
15905;SDS011;8051;50.820;4.884;2023-04-07T12:24:20;23.50;;;21.70;;
15905;SDS011;8051;50.820;4.884;2023-04-07T12:26:49;24.37;;;22.07;;
15905;SDS011;8051;50.820;4.884;2023-04-07T12:29:17;22.53;;;20.80;;
15905;SDS011;8051;50.820;4.884;2023-04-07T12:31:44;21.17;;;19.50;;
15905;SDS011;8051;50.820;4.884;2023-04-07T12:34:12;20.80;;;19.27;;
15905;SDS011;8051;50.820;4.884;2023-04-07T12:36:40;21.80;;;20.20;;
15905;SDS011;8051;50.820;4.884;2023-04-07T12:39:07;21.90;;;20.10;;
15905;SDS011;8051;50.820;4.884;2023-04-07T12:41:35;22.60;;;20.83;;
15905;SDS011;8051;50.820;4.884;2023-04-07T12:44:05;23.53;;;21.40;;
15905;SDS011;8051;50.820;4.884;2023-04-07T12:46:33;20.97;;;19.57;;
15905;SDS011;8051;50.820;4.884;2023-04-07T12:49:00;22.47;;;20.77;;
15905;SDS011;8051;50.820;4.884;2023-04-07T12:51:28;22.20;;;20.63;;
15905;SDS011;8051;50.820;4.884;2023-04-07T12:53:57;21.70;;;19.90;;
15905;SDS011;8051;50.820;4.884;2023-04-07T12:56:25;23.00;;;20.80;;
15905;SDS011;8051;50.820;4.884;2023-04-07T12:58:53;23.83;;;21.83;;
15905;SDS011;8051;50.820;4.884;2023-04-07T13:01:22;24.60;;;22.40;;
15905;SDS011;8051;50.820;4.884;2023-04-07T13:03:50;23.17;;;21.30;;
15905;SDS011;8051;50.820;4.884;2023-04-07T13:06:17;25.13;;;23.03;;
15905;SDS011;8051;50.820;4.884;2023-04-07T13:08:44;24.47;;;22.40;;
15905;SDS011;8051;50.820;4.884;2023-04-07T13:11:12;26.10;;;23.67;;
15905;SDS011;8051;50.820;4.884;2023-04-07T13:13:39;26.20;;;24.20;;
15905;SDS011;8051;50.820;4.884;2023-04-07T13:16:07;25.07;;;22.90;;
15905;SDS011;8051;50.820;4.884;2023-04-07T13:18:36;25.03;;;23.13;;
15905;SDS011;8051;50.820;4.884;2023-04-07T13:21:04;24.57;;;22.73;;
15905;SDS011;8051;50.820;4.884;2023-04-07T13:23:31;24.00;;;21.97;;
15905;SDS011;8051;50.820;4.884;2023-04-07T13:25:59;24.57;;;22.33;;
15905;SDS011;8051;50.820;4.884;2023-04-07T13:28:26;23.03;;;21.07;;
15905;SDS011;8051;50.820;4.884;2023-04-07T13:30:54;24.73;;;22.87;;
15905;SDS011;8051;50.820;4.884;2023-04-07T13:33:21;23.30;;;21.40;;
15905;SDS011;8051;50.820;4.884;2023-04-07T13:35:50;23.33;;;21.40;;
15905;SDS011;8051;50.820;4.884;2023-04-07T13:38:18;22.37;;;20.83;;
15905;SDS011;8051;50.820;4.884;2023-04-07T13:40:45;22.90;;;21.17;;
15905;SDS011;8051;50.820;4.884;2023-04-07T13:43:13;23.70;;;21.93;;
15905;SDS011;8051;50.820;4.884;2023-04-07T13:45:42;22.60;;;21.00;;
15905;SDS011;8051;50.820;4.884;2023-04-07T13:48:10;23.80;;;21.60;;
15905;SDS011;8051;50.820;4.884;2023-04-07T13:50:38;22.40;;;20.70;;
15905;SDS011;8051;50.820;4.884;2023-04-07T13:53:07;21.60;;;19.80;;
15905;SDS011;8051;50.820;4.884;2023-04-07T13:55:34;21.83;;;19.67;;
15905;SDS011;8051;50.820;4.884;2023-04-07T13:58:02;21.93;;;20.47;;
15905;SDS011;8051;50.820;4.884;2023-04-07T14:00:29;23.33;;;21.50;;
15905;SDS011;8051;50.820;4.884;2023-04-07T14:02:59;22.37;;;20.67;;
15905;SDS011;8051;50.820;4.884;2023-04-07T14:05:28;23.43;;;21.30;;
15905;SDS011;8051;50.820;4.884;2023-04-07T14:07:55;21.40;;;19.80;;
15905;SDS011;8051;50.820;4.884;2023-04-07T14:10:24;21.57;;;19.63;;
15905;SDS011;8051;50.820;4.884;2023-04-07T14:12:53;20.67;;;18.93;;
15905;SDS011;8051;50.820;4.884;2023-04-07T14:15:21;19.50;;;18.17;;
15905;SDS011;8051;50.820;4.884;2023-04-07T14:17:48;18.40;;;17.17;;
15905;SDS011;8051;50.820;4.884;2023-04-07T14:20:16;19.27;;;18.07;;
15905;SDS011;8051;50.820;4.884;2023-04-07T14:22:43;20.27;;;18.80;;
15905;SDS011;8051;50.820;4.884;2023-04-07T14:25:11;19.30;;;18.00;;
15905;SDS011;8051;50.820;4.884;2023-04-07T14:27:40;19.47;;;18.30;;
15905;SDS011;8051;50.820;4.884;2023-04-07T14:30:07;20.30;;;18.83;;
15905;SDS011;8051;50.820;4.884;2023-04-07T14:32:36;19.80;;;18.37;;
15905;SDS011;8051;50.820;4.884;2023-04-07T14:35:04;20.10;;;18.80;;
15905;SDS011;8051;50.820;4.884;2023-04-07T14:37:32;21.30;;;19.60;;
15905;SDS011;8051;50.820;4.884;2023-04-07T14:40:00;19.70;;;18.50;;
15905;SDS011;8051;50.820;4.884;2023-04-07T14:42:27;20.83;;;19.30;;
15905;SDS011;8051;50.820;4.884;2023-04-07T14:44:57;19.90;;;18.70;;
15905;SDS011;8051;50.820;4.884;2023-04-07T14:47:25;19.90;;;18.50;;
15905;SDS011;8051;50.820;4.884;2023-04-07T14:49:53;19.03;;;17.83;;
15905;SDS011;8051;50.820;4.884;2023-04-07T14:52:20;19.50;;;18.20;;
15905;SDS011;8051;50.820;4.884;2023-04-07T14:54:48;18.77;;;17.53;;
15905;SDS011;8051;50.820;4.884;2023-04-07T14:57:15;18.70;;;17.50;;